METAR AND TAF INFORMATION
METAR FOR EGKB
ADDS - METARS form results

(1626 UTC 02 June 2020)
Data provider http://aviationweather.gov/metar/data/
 
METAR text: EGKB 021620Z 28007KT 230V340 CAVOK 23/04 Q1016
Conditions at: EGKB (BIGGIN HILL , GB) observed 1620 UTC 02 June 2020
Temperature: 23.0°C (73°F)
Dewpoint: 4.0°C (39°F) [RH = 29%]
Pressure (altimeter): 30.00 inches Hg (1016.0 mb)
Winds: from the W (280 degrees) at 8 MPH (7 knots; 3.6 m/s)
Visibility: 6 or more miles (10+ km)
Ceiling: ceiling and visibility are OK
Clouds: unknown
Weather: no significant weather observed at this time

METAR text: EGKB 021550Z 32007KT 270V350 CAVOK 22/05 Q1016
Conditions at: EGKB (BIGGIN HILL , GB) observed 1550 UTC 02 June 2020
Temperature: 22.0°C (72°F)
Dewpoint: 5.0°C (41°F) [RH = 33%]
Pressure (altimeter): 30.00 inches Hg (1016.0 mb)
Winds: from the NW (320 degrees) at 8 MPH (7 knots; 3.6 m/s)
Visibility: 6 or more miles (10+ km)
Ceiling: ceiling and visibility are OK
Clouds: unknown
Weather: no significant weather observed at this time

Forecast for: EGKB (BIGGIN HILL , GB)
Text: TAF EGKB 021359Z 0215/0222 33005KT CAVOK
Forecast period: 1500 to 2200 UTC 02 June 2020
Forecast type: FROM: standard forecast or significant change
Winds: from the NNW (330 degrees) at 6 MPH (5 knots; 2.6 m/s)
Visibility: 6 or more miles 10+ km)
Ceiling: unknown
Clouds: missing
Weather: NSW  (no significant weather)

 AIRPORT MAP

 RUNWAY INFORMATION
Runway 03 Runway length 5912 ft Runway width 148 ft
Runway elevation 577 ft Runway displaced threshold 790 ft Runway heading 26
Runway 21 Runway length 5912 ft Runway width 148 ft
Runway elevation 517 ft Runway displaced threshold 0 ft Runway heading 206
Runway 11 Runway length 2598 ft Runway width 59 ft
Runway elevation 586 ft Runway displaced threshold 0 ft Runway heading 105
Runway 29 Runway length 2598 ft Runway width 59 ft
Runway elevation 598 ft Runway displaced threshold 0 ft Runway heading 285

 AIRPORT FREQUENCIES
Type APP Name APP Frequency 129.4 MHZ
Type ATIS Name ATIS Frequency 135.675 MHZ
Type RDR Name THAMES RDR Frequency 132.7 MHZ
Type TWR Name TWR Frequency 134.8 MHZ

 AIRPORT NEAR NAVIGATION AIDS
Type VOR-DME Name Biggin Frequency 115100 KHZ



Powered by Western Air Virtual